This is the latest recevied weather packets stored in our database for station/object OH2TI. If no packets are shown the sender has not sent any weather packets the latest 10 day(s).
| Time | Temp. | Humidity | Pressure | Rain* | Wind** | Luminosity | Snow |
|---|---|---|---|---|---|---|---|
| 1777551683 | 12.22° C | 63% | 1017.3 hPa | - | - | - | - |
| 1777551326 | 11.67° C | 64% | 1017.3 hPa | - | - | - | - |
| 1777550886 | 10.56° C | 68% | 1017.3 hPa | - | - | - | - |
| 1777550551 | 10° C | 70% | 1017.4 hPa | - | - | - | - |
| 1777550156 | 10.56° C | 69% | 1017.4 hPa | - | - | - | - |
| 1777549463 | 10° C | 71% | 1017.3 hPa | - | - | - | - |
| 1777548661 | 8.89° C | 73% | 1017.2 hPa | - | - | - | - |
| 1777547831 | 10° C | 70% | 1017.5 hPa | - | - | - | - |
| 1777547441 | 9.44° C | 70% | 1017.5 hPa | - | - | - | - |
| 1777547061 | 9.44° C | 70% | 1017.5 hPa | - | - | - | - |
| 1777546444 | 11.11° C | 66% | 1017.5 hPa | - | - | - | - |
| 1777545956 | 10.56° C | 67% | 1017.5 hPa | - | - | - | - |
| 1777545641 | 10° C | 70% | 1017.6 hPa | - | - | - | - |
| 1777545081 | 9.44° C | 71% | 1017.7 hPa | - | - | - | - |
| 1777544483 | 9.44° C | 70% | 1017.6 hPa | - | - | - | - |
| 1777544153 | 9.44° C | 70% | 1017.7 hPa | - | - | - | - |
| 1777543316 | 9.44° C | 70% | 1017.7 hPa | - | - | - | - |
| 1777542941 | 10° C | 66% | 1017.8 hPa | - | - | - | - |
| 1777542634 | 10° C | 66% | 1017.8 hPa | - | - | - | - |
| 1777541836 | 10.56° C | 64% | 1018 hPa | - | - | - | - |
| 1777541071 | 11.11° C | 63% | 1018.1 hPa | - | - | - | - |
| 1777540201 | 10.56° C | 66% | 1017.9 hPa | - | - | - | - |
| 1777539576 | 10° C | 70% | 1018 hPa | - | - | - | - |
| 1777539181 | 8.89° C | 71% | 1018 hPa | - | - | - | - |
| 1777538786 | 8.89° C | 73% | 1018 hPa | - | - | - | - |
* Rain since midnight (hover to see other rain measurements)
** Current wind speed in m/s (hover to see current wind gust speed)